Time;durP1;ratioP1;P1;durP2;ratioP2;P2;SDS_P1;SDS_P2;PMS_P1;PMS_P2;Temp;Humidity;BMP_temperature;BMP_pressure;BME280_temperature;BME280_humidity;BME280_pressure;Samples;Min_cycle;Max_cycle;Signal;HPM_P1;HPM_P2
2021/10/26 00:00:24;;;;;;;12.73;5.53;;;;;;;10.70;98.14;99005.81;5065758;28;20029;-65
2021/10/26 00:02:49;;;;;;;12.13;6.20;;;;;;;10.67;98.24;98997.94;5064441;28;20048;-65
2021/10/26 00:05:15;;;;;;;14.43;6.38;;;;;;;10.68;98.29;99004.94;5064553;28;20032;-65
2021/10/26 00:07:40;;;;;;;13.50;6.05;;;;;;;10.69;98.62;99006.69;5055836;28;20033;-65
2021/10/26 00:10:07;;;;;;;14.82;6.43;;;;;;;10.70;98.80;99006.66;5046347;28;20029;-65
2021/10/26 00:12:33;;;;;;;13.85;6.05;;;;;;;10.73;98.53;99008.41;5046274;28;20313;-65
2021/10/26 00:14:59;;;;;;;13.25;6.82;;;;;;;10.69;98.51;99010.19;5058180;28;20020;-65
2021/10/26 00:17:25;;;;;;;14.13;6.80;;;;;;;10.66;98.24;99014.63;5065480;28;20110;-65
2021/10/26 00:19:51;;;;;;;11.30;5.47;;;;;;;10.66;98.15;99014.63;5046819;28;20328;-65
2021/10/26 00:22:17;;;;;;;10.73;6.05;;;;;;;10.63;98.12;99020.78;5046113;28;20025;-65
2021/10/26 00:24:42;;;;;;;12.95;6.18;;;;;;;10.62;98.44;99028.72;5046258;28;20071;-65
2021/10/26 00:27:08;;;;;;;15.40;6.45;;;;;;;10.63;98.70;99025.19;5065473;28;20021;-65
2021/10/26 00:29:33;;;;;;;16.83;7.25;;;;;;;10.60;98.62;99031.38;5049278;28;20252;-65
2021/10/26 00:31:59;;;;;;;17.88;6.78;;;;;;;10.63;98.56;99035.72;5065199;28;20366;-65
2021/10/26 00:34:24;;;;;;;13.18;6.75;;;;;;;10.64;98.69;99032.22;5059628;28;20028;-65
2021/10/26 00:36:50;;;;;;;14.15;8.20;;;;;;;10.65;98.88;99033.94;5045893;28;20025;-65
2021/10/26 00:39:15;;;;;;;14.88;7.53;;;;;;;10.72;98.87;99030.31;5057424;28;20032;-65
2021/10/26 00:41:41;;;;;;;15.35;8.25;;;;;;;10.71;99.14;99033.88;5050360;28;20033;-65
2021/10/26 00:44:06;;;;;;;17.48;8.32;;;;;;;10.81;99.41;99035.47;5045808;28;20037;-65
2021/10/26 00:46:34;;;;;;;18.58;8.35;;;;;;;10.80;99.67;99033.75;5058425;28;20312;-65
2021/10/26 00:49:02;;;;;;;15.88;8.68;;;;;;;10.85;99.33;99031.91;5065313;28;20204;-65
2021/10/26 00:51:29;;;;;;;19.15;8.38;;;;;;;10.86;99.38;99033.66;5046993;28;20287;-65
2021/10/26 00:53:56;;;;;;;15.18;8.38;;;;;;;10.88;99.21;99042.38;5045603;28;20040;-65
2021/10/26 00:56:24;;;;;;;17.67;8.82;;;;;;;10.88;99.38;99043.28;5045543;28;20221;-65
2021/10/26 00:58:51;;;;;;;21.23;8.88;;;;;;;10.89;99.37;99047.63;5045493;28;20339;-65
2021/10/26 01:01:16;;;;;;;14.23;8.30;;;;;;;10.87;99.28;99051.19;5061246;28;20036;-65
2021/10/26 01:03:42;;;;;;;16.70;8.30;;;;;;;10.95;99.04;99050.19;5045787;28;20025;-65
2021/10/26 01:06:09;;;;;;;18.00;7.95;;;;;;;11.00;99.26;99055.38;5059011;28;20020;-65
2021/10/26 01:08:35;;;;;;;14.52;8.18;;;;;;;11.02;99.37;99048.34;5064444;28;20017;-65
2021/10/26 01:11:00;;;;;;;18.27;8.95;;;;;;;11.04;99.04;99049.19;5051160;28;20032;-65
2021/10/26 01:13:27;;;;;;;15.48;7.75;;;;;;;11.06;98.97;99051.78;5045213;28;20044;-65
2021/10/26 01:15:56;;;;;;;16.42;7.75;;;;;;;11.07;99.03;99049.13;5056393;28;20209;-65
2021/10/26 01:18:22;;;;;;;17.25;9.07;;;;;;;11.06;99.01;99042.13;5064827;28;20325;-65
2021/10/26 01:20:48;;;;;;;15.68;7.50;;;;;;;11.08;99.02;99050.91;5064962;28;20016;-65
2021/10/26 01:23:14;;;;;;;20.73;9.02;;;;;;;11.09;98.76;99052.63;5064823;28;20075;-65
2021/10/26 01:25:40;;;;;;;19.92;7.78;;;;;;;11.11;98.63;99050.84;5062643;28;20324;-65
2021/10/26 01:28:06;;;;;;;17.60;8.60;;;;;;;11.09;98.73;99044.72;5049748;28;20025;-65
2021/10/26 01:30:34;;;;;;;17.05;8.60;;;;;;;11.08;98.96;99053.53;5044860;28;20317;-65
2021/10/26 01:33:01;;;;;;;15.18;7.50;;;;;;;11.12;98.95;99052.59;5044815;28;20299;-65
2021/10/26 01:35:27;;;;;;;15.05;7.70;;;;;;;11.10;98.89;99046.44;5044735;28;20045;-65
2021/10/26 01:37:52;;;;;;;19.83;8.43;;;;;;;11.09;98.95;99067.56;5044701;28;20255;-65
2021/10/26 01:40:18;;;;;;;21.17;8.27;;;;;;;11.05;99.18;99056.22;5044598;28;20249;-64
2021/10/26 01:42:44;;;;;;;17.33;7.38;;;;;;;11.02;99.51;99051.84;5044531;28;20025;-64
2021/10/26 01:45:10;;;;;;;14.55;7.40;;;;;;;11.06;99.22;99047.41;5056212;28;20096;-64
2021/10/26 01:47:35;;;;;;;16.13;7.70;;;;;;;11.05;99.27;99056.22;5064467;28;20028;-64
2021/10/26 01:50:01;;;;;;;17.33;8.00;;;;;;;11.06;99.12;99051.78;5063408;28;20017;-64
2021/10/26 01:52:26;;;;;;;17.45;7.65;;;;;;;11.02;99.25;99045.72;5064373;28;20313;-64
2021/10/26 01:54:52;;;;;;;17.73;8.32;;;;;;;10.98;98.95;99045.78;5059166;28;20088;-64
2021/10/26 01:57:20;;;;;;;19.83;8.45;;;;;;;10.90;99.00;99041.50;5044627;28;20021;-64
2021/10/26 01:59:46;;;;;;;14.85;7.35;;;;;;;10.85;99.10;99042.44;5044327;28;20302;-64
2021/10/26 02:02:11;;;;;;;14.98;7.63;;;;;;;10.82;99.15;99053.00;5044578;28;20233;-64
2021/10/26 02:04:37;;;;;;;21.40;8.23;;;;;;;10.75;99.42;99048.72;5044412;28;20024;-64
2021/10/26 02:07:03;;;;;;;14.40;7.00;;;;;;;10.73;99.47;99048.72;5044185;28;20216;-64
2021/10/26 02:09:29;;;;;;;14.43;7.03;;;;;;;10.70;99.54;99047.94;5044445;28;20021;-64
2021/10/26 02:11:56;;;;;;;15.57;7.47;;;;;;;10.60;99.44;99046.31;5044108;28;20020;-64
2021/10/26 02:14:21;;;;;;;15.27;7.07;;;;;;;10.57;99.75;99049.81;5044035;28;20017;-64
2021/10/26 02:16:47;;;;;;;18.52;6.90;;;;;;;10.51;99.75;99054.31;5043899;28;20021;-64
2021/10/26 02:19:12;;;;;;;20.35;7.60;;;;;;;10.46;99.87;99053.50;5044089;28;20074;-64
2021/10/26 02:21:38;;;;;;;15.38;7.28;;;;;;;10.46;100.00;99058.75;5044216;28;20032;-64
2021/10/26 02:24:03;;;;;;;15.25;7.32;;;;;;;10.46;100.00;99069.28;5044234;28;20024;-64
2021/10/26 02:26:29;;;;;;;12.75;6.57;;;;;;;10.44;100.00;99071.94;5045161;28;20025;-64
2021/10/26 02:28:54;;;;;;;19.85;7.38;;;;;;;10.49;100.00;99074.50;5048673;28;20055;-64
2021/10/26 02:31:20;;;;;;;13.90;7.10;;;;;;;10.42;99.79;99079.00;5061698;28;20205;-64
2021/10/26 02:33:45;;;;;;;16.45;7.05;;;;;;;10.34;99.92;99080.81;5061713;28;20380;-64
2021/10/26 02:36:10;;;;;;;20.17;7.00;;;;;;;10.30;99.93;99083.50;5060331;28;20021;-64
2021/10/26 02:38:36;;;;;;;16.67;5.97;;;;;;;10.30;99.95;99084.38;5044519;28;20017;-64
2021/10/26 02:41:02;;;;;;;14.10;6.90;;;;;;;10.30;100.00;99086.13;5043811;28;20055;-64
2021/10/26 02:43:30;;;;;;;18.77;7.43;;;;;;;10.37;100.00;99085.16;5043831;28;20093;-64
2021/10/26 02:45:55;;;;;;;17.77;7.15;;;;;;;10.43;100.00;99087.72;5044959;28;20025;-64
2021/10/26 02:48:21;;;;;;;20.55;7.75;;;;;;;10.48;100.00;99099.09;5059778;28;20028;-64
2021/10/26 02:50:46;;;;;;;12.48;6.95;;;;;;;10.54;100.00;99091.13;5050601;28;20317;-64
2021/10/26 02:53:12;;;;;;;15.55;8.23;;;;;;;10.59;100.00;99102.47;5043748;28;20136;-64
2021/10/26 02:55:37;;;;;;;20.52;9.02;;;;;;;10.64;100.00;99111.19;5053842;28;20312;-64
2021/10/26 02:58:03;;;;;;;19.00;8.30;;;;;;;10.71;100.00;99102.31;5049518;28;20232;-64
2021/10/26 03:00:28;;;;;;;25.65;9.25;;;;;;;10.72;100.00;99098.78;5044851;28;20025;-64
2021/10/26 03:02:54;;;;;;;15.13;8.77;;;;;;;10.75;100.00;99104.00;5043523;28;20123;-64
2021/10/26 03:05:19;;;;;;;19.10;8.32;;;;;;;10.77;100.00;99121.56;5043646;28;20021;-64
2021/10/26 03:07:45;;;;;;;13.75;7.85;;;;;;;10.80;100.00;99120.63;5043613;28;20021;-64
2021/10/26 03:10:12;;;;;;;17.98;7.50;;;;;;;10.80;100.00;99112.72;5043786;28;20209;-64
2021/10/26 03:12:38;;;;;;;15.23;7.68;;;;;;;10.83;99.98;99117.97;5043509;28;20028;-64
2021/10/26 03:15:06;;;;;;;17.83;9.15;;;;;;;10.80;99.96;99124.13;5044392;28;20032;-64
2021/10/26 03:17:31;;;;;;;15.88;8.20;;;;;;;10.81;99.84;99132.91;5043273;28;20037;-64
2021/10/26 03:19:57;;;;;;;18.08;8.25;;;;;;;10.82;99.87;99134.63;5043503;28;20041;-64
2021/10/26 03:22:23;;;;;;;15.13;7.75;;;;;;;10.82;100.00;99134.63;5061867;28;20029;-64
2021/10/26 03:24:48;;;;;;;18.83;8.88;;;;;;;10.79;99.91;99132.06;5062824;28;20320;-64
2021/10/26 03:27:14;;;;;;;11.70;7.88;;;;;;;10.86;99.92;99144.25;5044309;28;20040;-64
2021/10/26 03:29:40;;;;;;;15.55;7.95;;;;;;;10.86;99.69;99139.00;5043478;28;20017;-64
2021/10/26 03:32:06;;;;;;;20.48;9.18;;;;;;;10.86;99.53;99134.56;5051530;28;20309;-64
2021/10/26 03:34:31;;;;;;;14.73;7.45;;;;;;;10.88;99.38;99138.06;5062746;28;20062;-64
2021/10/26 03:36:57;;;;;;;18.05;7.93;;;;;;;10.87;99.25;99135.47;5047954;28;20083;-64
2021/10/26 03:39:22;;;;;;;16.95;8.82;;;;;;;10.87;99.25;99130.19;5043311;28;20028;-64
2021/10/26 03:41:48;;;;;;;13.77;7.40;;;;;;;10.86;99.24;99136.34;5044397;28;20021;-64
2021/10/26 03:44:13;;;;;;;12.32;6.80;;;;;;;10.87;99.22;99135.47;5043295;28;20333;-65
2021/10/26 03:46:39;;;;;;;14.05;7.20;;;;;;;10.90;99.31;99136.31;5051240;28;20018;-65
2021/10/26 03:49:04;;;;;;;11.68;6.90;;;;;;;10.90;98.96;99135.41;5044372;28;20244;-65
2021/10/26 03:51:30;;;;;;;14.98;7.63;;;;;;;10.93;99.14;99140.66;5046731;28;20028;-65
2021/10/26 03:53:56;;;;;;;12.48;7.07;;;;;;;10.92;98.96;99137.13;5047006;28;20028;-65
2021/10/26 03:56:22;;;;;;;14.57;7.57;;;;;;;10.94;98.98;99148.53;5060404;28;20060;-65
2021/10/26 03:58:47;;;;;;;14.93;7.45;;;;;;;10.97;98.95;99136.22;5064440;28;20098;-65
2021/10/26 04:01:13;;;;;;;17.42;8.30;;;;;;;10.93;98.94;99141.53;5065637;28;20027;-65
2021/10/26 04:03:39;;;;;;;12.85;7.55;;;;;;;10.94;98.98;99145.03;5066147;28;20251;-64
2021/10/26 04:06:07;;;;;;;15.10;7.32;;;;;;;10.91;98.83;99142.41;5051400;28;20021;-64
2021/10/26 04:11:02;;;;;;;17.35;7.40;;;;;;;10.89;99.11;99149.50;5046720;28;20071;-64
2021/10/26 04:13:28;;;;;;;12.55;6.82;;;;;;;10.94;99.05;99150.28;5062286;28;20013;-64
2021/10/26 04:15:54;;;;;;;18.73;8.05;;;;;;;10.93;99.01;99156.44;5052932;28;20139;-64
2021/10/26 04:18:21;;;;;;;16.17;8.75;;;;;;;10.95;99.00;99149.41;5047248;28;20333;-64
2021/10/26 04:20:46;;;;;;;15.20;8.18;;;;;;;10.95;99.21;99144.16;5046515;28;20381;-64
2021/10/26 04:23:12;;;;;;;12.50;7.38;;;;;;;10.94;99.22;99147.66;5046331;28;20044;-64
2021/10/26 04:25:37;;;;;;;17.05;7.70;;;;;;;10.92;99.31;99152.09;5061203;28;20017;-64
2021/10/26 04:28:04;;;;;;;14.18;6.57;;;;;;;10.98;98.99;99149.34;5066104;28;20074;-64
2021/10/26 04:30:31;;;;;;;14.50;7.35;;;;;;;10.97;98.61;99159.94;5062823;28;20017;-64
2021/10/26 04:32:57;;;;;;;19.42;8.10;;;;;;;10.99;98.87;99156.38;5064535;28;20197;-64
2021/10/26 04:35:22;;;;;;;13.05;6.95;;;;;;;10.96;98.93;99151.16;5055288;28;20103;-65
2021/10/26 04:37:48;;;;;;;17.73;7.47;;;;;;;10.91;98.82;99158.22;5049349;28;20313;-65
2021/10/26 04:40:13;;;;;;;18.88;7.38;;;;;;;10.90;98.91;99159.13;5051750;28;20021;-64
2021/10/26 04:42:39;;;;;;;15.35;6.40;;;;;;;10.89;99.40;99165.28;5055272;28;20017;-64
2021/10/26 04:45:05;;;;;;;18.48;7.65;;;;;;;10.83;99.50;99171.47;5053669;28;20024;-64
2021/10/26 04:47:31;;;;;;;14.80;7.00;;;;;;;10.90;99.50;99177.56;5053908;28;20024;-64
2021/10/26 04:49:56;;;;;;;18.25;7.18;;;;;;;10.91;99.41;99171.38;5048692;28;20213;-64
2021/10/26 04:52:22;;;;;;;17.85;6.63;;;;;;;10.90;99.46;99162.63;5060107;28;20320;-64
2021/10/26 04:54:48;;;;;;;15.55;6.32;;;;;;;10.94;99.37;99168.72;5055653;28;20024;-64
2021/10/26 04:57:14;;;;;;;13.77;6.97;;;;;;;10.91;99.48;99174.03;5058526;28;20037;-64
2021/10/26 04:59:40;;;;;;;14.93;6.25;;;;;;;10.96;99.28;99172.22;5046288;28;20248;-64
2021/10/26 05:02:05;;;;;;;11.88;6.13;;;;;;;10.97;99.57;99163.41;5047841;28;20017;-64
2021/10/26 05:04:30;;;;;;;15.93;5.70;;;;;;;10.97;99.50;99167.84;5059096;28;20017;-64
2021/10/26 05:06:56;;;;;;;19.73;6.68;;;;;;;10.97;99.71;99170.47;5061608;28;20016;-64
2021/10/26 05:09:21;;;;;;;16.08;6.22;;;;;;;10.91;99.81;99176.66;5047970;28;20017;-64
2021/10/26 05:11:47;;;;;;;18.85;6.22;;;;;;;10.84;100.00;99185.53;5055681;28;20092;-64
2021/10/26 05:14:13;;;;;;;15.55;5.82;;;;;;;10.84;99.98;99182.91;5059305;28;20321;-64
2021/10/26 05:16:38;;;;;;;22.48;6.65;;;;;;;10.82;100.00;99185.53;5057969;28;20089;-64
2021/10/26 05:19:06;;;;;;;15.80;6.57;;;;;;;10.84;100.00;99185.53;5050389;28;20023;-64
2021/10/26 05:21:31;;;;;;;15.95;6.13;;;;;;;10.85;100.00;99180.25;5052607;28;20025;-64
2021/10/26 05:23:57;;;;;;;11.48;6.63;;;;;;;10.86;100.00;99186.41;5046195;28;20036;-64
2021/10/26 05:26:23;;;;;;;14.00;6.10;;;;;;;10.83;100.00;99181.16;5055749;28;20017;-64
2021/10/26 05:28:49;;;;;;;17.35;6.40;;;;;;;10.84;100.00;99177.63;5064888;28;20021;-64
2021/10/26 05:31:15;;;;;;;13.52;5.90;;;;;;;10.81;99.84;99188.19;5064763;28;20017;-64
2021/10/26 05:33:42;;;;;;;16.50;6.75;;;;;;;10.78;100.00;99183.84;5064777;28;20082;-64
2021/10/26 05:36:08;;;;;;;18.55;7.10;;;;;;;10.77;100.00;99189.13;5062387;28;20075;-64
2021/10/26 05:38:34;;;;;;;14.50;5.90;;;;;;;10.77;100.00;99202.28;5061720;28;20317;-65
2021/10/26 05:41:00;;;;;;;14.82;5.85;;;;;;;10.75;100.00;99193.53;5062423;28;20044;-66
2021/10/26 05:43:26;;;;;;;21.08;6.40;;;;;;;10.77;100.00;99202.28;5060477;28;20051;-65
2021/10/26 05:45:52;;;;;;;24.27;6.40;;;;;;;10.80;100.00;99204.91;5063751;28;20313;-66
2021/10/26 05:48:18;;;;;;;16.30;6.55;;;;;;;10.79;100.00;99214.53;5055254;28;20370;-66
2021/10/26 05:50:44;;;;;;;12.40;5.53;;;;;;;10.80;100.00;99213.66;5044492;28;20084;-66
2021/10/26 05:53:10;;;;;;;12.18;5.72;;;;;;;10.83;100.00;99212.75;5044403;28;20309;-66
2021/10/26 05:55:37;;;;;;;12.77;6.30;;;;;;;10.85;100.00;99221.50;5044406;28;20080;-66
2021/10/26 05:58:03;;;;;;;12.85;5.35;;;;;;;10.87;100.00;99219.72;5044378;28;20032;-66
2021/10/26 06:00:28;;;;;;;13.52;6.32;;;;;;;10.90;100.00;99224.97;5044584;28;20021;-66
2021/10/26 06:02:54;;;;;;;15.18;6.55;;;;;;;10.92;100.00;99223.19;5058045;28;20368;-66
2021/10/26 06:05:19;;;;;;;15.52;6.03;;;;;;;10.93;100.00;99231.09;5047120;28;20013;-66
2021/10/26 06:07:45;;;;;;;15.60;6.18;;;;;;;10.93;100.00;99230.19;5052187;28;20096;-65
2021/10/26 06:10:10;;;;;;;17.10;7.15;;;;;;;10.93;100.00;99236.34;5060699;28;20017;-65
2021/10/26 06:12:41;;;;;;;19.23;7.03;;;;;;;10.94;100.00;99226.66;5058402;28;20033;-65
2021/10/26 06:15:07;;;;;;;16.10;6.78;;;;;;;10.93;100.00;99232.84;5049140;28;20333;-65
2021/10/26 06:17:33;;;;;;;16.00;6.47;;;;;;;10.96;100.00;99230.16;5051324;28;20371;-65
2021/10/26 06:19:58;;;;;;;15.65;6.25;;;;;;;10.98;100.00;99228.38;5047500;28;20021;-65
2021/10/26 06:22:24;;;;;;;16.00;6.18;;;;;;;11.01;100.00;99244.13;5046265;28;20017;-65
2021/10/26 06:24:49;;;;;;;12.30;6.20;;;;;;;11.01;100.00;99244.13;5051953;28;20053;-65
2021/10/26 06:27:14;;;;;;;14.00;6.25;;;;;;;10.99;100.00;99252.06;5059211;28;20302;-65
2021/10/26 06:29:41;;;;;;;18.85;7.55;;;;;;;11.02;100.00;99252.03;5054466;28;20335;-65
2021/10/26 06:32:06;;;;;;;12.93;6.53;;;;;;;11.01;100.00;99254.66;5054669;28;20052;-65
2021/10/26 06:34:31;;;;;;;13.88;6.72;;;;;;;11.01;100.00;99265.22;5053223;28;20029;-65
2021/10/26 06:36:57;;;;;;;16.92;8.02;;;;;;;10.99;100.00;99267.84;5058206;28;20029;-65
2021/10/26 06:39:22;;;;;;;17.08;7.95;;;;;;;10.99;100.00;99267.00;5046377;28;20364;-65
2021/10/26 06:41:49;;;;;;;16.15;7.20;;;;;;;11.02;100.00;99272.25;5051666;28;20025;-65
2021/10/26 06:44:15;;;;;;;14.93;6.75;;;;;;;11.04;100.00;99280.97;5059262;28;20029;-65
2021/10/26 06:46:42;;;;;;;15.48;6.50;;;;;;;11.07;100.00;99280.94;5051100;28;20048;-65
2021/10/26 06:49:07;;;;;;;18.67;8.02;;;;;;;11.09;100.00;99278.31;5052351;28;20020;-65
2021/10/26 06:51:33;;;;;;;13.13;6.72;;;;;;;11.10;100.00;99288.81;5055381;28;20084;-65
2021/10/26 06:54:00;;;;;;;13.30;5.95;;;;;;;11.11;100.00;99287.06;5051482;28;20021;-65
2021/10/26 06:56:27;;;;;;;13.55;6.82;;;;;;;11.10;100.00;99290.59;5061275;28;20090;-65
2021/10/26 06:58:53;;;;;;;17.15;6.93;;;;;;;11.08;100.00;99303.78;5045770;28;20248;-65
2021/10/26 07:01:18;;;;;;;17.25;7.35;;;;;;;11.12;100.00;99271.25;5060932;28;20020;-65
2021/10/26 07:03:44;;;;;;;15.32;7.38;;;;;;;11.14;100.00;99277.38;5059796;28;20021;-65
2021/10/26 07:06:09;;;;;;;12.80;7.15;;;;;;;11.19;100.00;99270.28;5058205;28;20028;-65
2021/10/26 07:08:35;;;;;;;15.77;6.90;;;;;;;11.24;100.00;99268.47;5052176;28;20029;-65
2021/10/26 07:11:01;;;;;;;21.83;8.23;;;;;;;11.25;100.00;99275.47;5045744;28;20040;-65
2021/10/26 07:13:26;;;;;;;16.33;6.93;;;;;;;11.27;100.00;99273.72;5047478;28;20024;-65
2021/10/26 07:15:52;;;;;;;18.27;8.15;;;;;;;11.28;100.00;99285.09;5050457;28;20193;-65
2021/10/26 07:18:18;;;;;;;19.00;8.40;;;;;;;11.31;100.00;99283.31;5054310;28;20089;-65
2021/10/26 07:20:43;;;;;;;12.35;6.75;;;;;;;11.37;100.00;99291.16;5052271;28;20205;-65
2021/10/26 07:23:08;;;;;;;14.65;7.63;;;;;;;11.40;100.00;99293.75;5050001;28;20081;-65
2021/10/26 07:25:34;;;;;;;22.48;7.50;;;;;;;11.45;100.00;99294.56;5047006;28;20048;-65
2021/10/26 07:28:00;;;;;;;14.57;6.45;;;;;;;11.45;99.94;99291.06;5045991;28;20022;-65
2021/10/26 07:30:34;;;;;;;13.38;6.45;;;;;;;11.46;99.66;99301.59;5046061;28;20018;-65
2021/10/26 07:33:02;;;;;;;12.93;7.07;;;;;;;11.50;99.98;99302.41;5047089;28;20251;-65
2021/10/26 07:35:36;;;;;;;18.50;8.85;;;;;;;11.49;100.00;99306.81;5047007;28;20026;-65
2021/10/26 07:38:02;;;;;;;19.05;8.63;;;;;;;11.48;100.00;99318.25;5047043;28;20017;-65
2021/10/26 07:40:27;;;;;;;27.73;9.20;;;;;;;11.45;100.00;99320.06;5046961;28;20092;-65
2021/10/26 07:42:53;;;;;;;18.00;8.80;;;;;;;11.47;100.00;99327.06;5046840;28;20067;-65
2021/10/26 07:45:18;;;;;;;14.35;7.60;;;;;;;11.53;100.00;99329.63;5046919;28;20087;-65
2021/10/26 07:47:44;;;;;;;21.20;9.32;;;;;;;11.58;100.00;99333.06;5046777;28;20021;-65
2021/10/26 07:50:10;;;;;;;12.55;8.30;;;;;;;11.65;99.82;99333.91;5046822;28;20058;-65
2021/10/26 07:52:36;;;;;;;17.42;9.23;;;;;;;11.60;99.90;99335.66;5046984;28;20404;-65
2021/10/26 07:55:06;;;;;;;15.63;9.88;;;;;;;11.62;100.00;99340.09;5046670;28;20017;-65
2021/10/26 07:57:32;;;;;;;24.92;11.05;;;;;;;11.70;100.00;99337.31;5046618;28;20085;-65
2021/10/26 07:59:57;;;;;;;17.63;8.77;;;;;;;11.73;100.00;99345.19;5046517;28;20052;-65
2021/10/26 08:02:24;;;;;;;19.10;9.30;;;;;;;11.78;99.78;99341.66;5046637;28;20029;-65
2021/10/26 08:04:50;;;;;;;18.08;8.98;;;;;;;11.79;99.86;99348.66;5046490;28;20040;-65
2021/10/26 08:07:16;;;;;;;15.55;8.55;;;;;;;11.82;100.00;99348.63;5046403;28;20088;-65
2021/10/26 08:09:46;;;;;;;18.23;9.27;;;;;;;11.82;99.66;99343.34;5046431;28;20021;-65
2021/10/26 08:12:12;;;;;;;18.70;9.13;;;;;;;11.85;99.73;99348.56;5046376;28;20022;-65
2021/10/26 08:14:38;;;;;;;20.35;9.07;;;;;;;11.87;99.59;99344.13;5046306;28;20021;-65
2021/10/26 08:17:04;;;;;;;14.75;8.93;;;;;;;11.93;99.62;99346.69;5046112;28;20048;-65
2021/10/26 08:19:30;;;;;;;15.98;9.13;;;;;;;11.98;99.72;99344.00;5046264;28;20028;-65
2021/10/26 08:21:57;;;;;;;14.90;7.45;;;;;;;12.02;99.22;99346.56;5046110;28;20085;-65
2021/10/26 08:24:23;;;;;;;16.58;8.30;;;;;;;12.06;99.31;99340.34;5046163;28;20083;-65
2021/10/26 08:26:59;;;;;;;18.58;7.82;;;;;;;12.12;99.35;99342.91;5046406;28;20024;-65
2021/10/26 08:34:52;;;;;;;27.43;8.27;;;;;;;12.19;99.63;99355.16;5045764;28;20037;-65
2021/10/26 08:37:17;;;;;;;16.50;7.55;;;;;;;12.23;99.21;99356.84;5046038;28;20322;-65
2021/10/26 08:39:46;;;;;;;14.40;7.30;;;;;;;12.28;99.11;99352.34;5045861;28;20241;-65
2021/10/26 08:42:15;;;;;;;17.58;8.15;;;;;;;12.36;98.49;99352.22;5045828;28;20049;-65
2021/10/26 08:44:41;;;;;;;12.80;6.95;;;;;;;12.38;98.78;99351.34;5045779;28;20035;-65
2021/10/26 08:47:08;;;;;;;19.38;7.22;;;;;;;12.36;98.34;99358.41;5045808;28;20052;-65
2021/10/26 08:49:33;;;;;;;16.55;7.43;;;;;;;12.32;98.25;99346.16;5045669;28;20060;-65
2021/10/26 08:52:01;;;;;;;25.42;7.95;;;;;;;12.36;98.04;99350.47;5045891;28;20022;-65
2021/10/26 08:54:27;;;;;;;17.52;7.25;;;;;;;12.43;97.81;99352.13;5045582;28;20071;-65
2021/10/26 08:56:52;;;;;;;16.25;7.10;;;;;;;12.46;98.04;99351.19;5045539;28;20048;-65
2021/10/26 08:59:22;;;;;;;22.65;7.97;;;;;;;12.47;98.55;99345.88;5045770;28;20340;-65
2021/10/26 09:01:55;;;;;;;15.73;7.13;;;;;;;12.66;98.34;99341.22;5045642;28;20017;-65
2021/10/26 09:04:20;;;;;;;;;;;;;;;12.85;98.15;99338.22;5046022;28;20187;-65
2021/10/26 09:06:48;;;;;;;18.77;7.38;;;;;;;12.90;97.44;99341.66;5045359;28;19912;-65
2021/10/26 09:09:19;;;;;;;20.35;8.48;;;;;;;12.76;97.33;99333.09;5045268;28;20036;-65
2021/10/26 09:16:40;;;;;;;22.25;8.25;;;;;;;12.70;97.32;99338.50;5045350;28;20113;-65
2021/10/26 09:17:18;;;;;;;22.45;7.90;;;;;;;12.82;97.34;99330.34;5045062;28;20064;-65
2021/10/26 09:19:44;;;;;;;16.58;6.80;;;;;;;12.86;97.78;99339.97;5045060;28;20053;-65
2021/10/26 09:22:10;;;;;;;13.32;6.80;;;;;;;12.87;97.14;99339.06;5045015;28;20029;-65
2021/10/26 09:24:35;;;;;;;15.95;7.18;;;;;;;12.92;97.32;99331.91;5044966;28;20022;-65
2021/10/26 09:27:05;;;;;;;12.57;6.22;;;;;;;12.90;97.30;99338.13;5044974;28;20088;-65
2021/10/26 09:29:46;;;;;;;17.27;7.70;;;;;;;12.80;97.68;99334.78;5044945;28;20032;-65
2021/10/26 09:32:13;;;;;;;17.63;6.88;;;;;;;12.74;97.81;99334.91;5044954;28;20336;-65
2021/10/26 09:34:44;;;;;;;15.45;7.95;;;;;;;12.66;98.01;99336.78;5044819;28;20076;-65
2021/10/26 09:37:11;;;;;;;16.20;7.47;;;;;;;12.66;97.77;99336.78;5044827;28;20225;-65
2021/10/26 09:39:37;;;;;;;15.18;7.70;;;;;;;12.59;98.30;99331.63;5044720;28;20397;-65
2021/10/26 09:42:05;;;;;;;15.70;8.25;;;;;;;12.69;97.98;99326.16;5044540;28;20025;-65
2021/10/26 09:44:37;;;;;;;18.42;7.22;;;;;;;12.79;98.54;99326.91;5044609;28;20097;-65
2021/10/26 09:47:23;;;;;;;17.17;7.43;;;;;;;12.89;98.56;99332.00;5043730;28;20088;-65
2021/10/26 09:49:54;;;;;;;21.27;8.45;;;;;;;12.91;98.70;99338.09;5044842;28;20033;-65
2021/10/26 09:52:22;;;;;;;14.65;7.50;;;;;;;12.91;98.09;99338.09;5044517;28;20017;-65
2021/10/26 09:55:28;;;;;;;16.00;6.88;;;;;;;12.89;98.85;99347.84;5044471;28;20044;-65
2021/10/26 09:58:02;;;;;;;15.73;7.85;;;;;;;12.93;97.92;99351.28;5044463;28;20075;-65
2021/10/26 10:00:39;;;;;;;15.05;6.65;;;;;;;12.96;98.09;99354.78;5044595;28;20021;-65
2021/10/26 10:03:24;;;;;;;14.88;6.82;;;;;;;12.93;98.54;99354.81;5044187;28;20048;-65
2021/10/26 10:05:54;;;;;;;14.52;6.88;;;;;;;12.94;99.00;99364.47;5044608;28;20320;-65
2021/10/26 10:08:27;;;;;;;15.02;6.80;;;;;;;12.96;99.05;99362.69;5044266;28;20025;-65
2021/10/26 10:11:07;;;;;;;11.68;7.15;;;;;;;12.98;99.03;99366.16;5044215;28;20028;-65
2021/10/26 10:13:40;;;;;;;11.05;6.28;;;;;;;13.12;98.43;99354.50;5044263;28;20023;-65
2021/10/26 10:16:20;;;;;;;11.60;6.40;;;;;;;13.00;97.75;99358.25;5044429;28;20283;-65
2021/10/26 10:18:46;;;;;;;16.60;6.93;;;;;;;12.85;98.30;99364.63;5043945;28;20115;-65
2021/10/26 10:21:17;;;;;;;14.60;7.20;;;;;;;12.87;97.98;99361.97;5044260;28;20017;-65
2021/10/26 10:23:47;;;;;;;13.52;8.00;;;;;;;12.84;97.90;99362.91;5044033;28;20029;-65
2021/10/26 10:26:24;;;;;;;14.55;7.53;;;;;;;12.83;97.56;99360.28;5043975;28;20229;-65
2021/10/26 10:28:51;;;;;;;17.13;7.95;;;;;;;12.88;97.94;99364.59;5044042;28;20237;-65
2021/10/26 10:31:25;;;;;;;14.45;8.27;;;;;;;12.94;99.04;99361.84;5043934;28;20021;-65
2021/10/26 10:33:52;;;;;;;17.30;7.50;;;;;;;12.96;98.05;99357.41;5043987;28;20029;-65
2021/10/26 10:36:19;;;;;;;18.48;8.45;;;;;;;12.88;98.43;99359.28;5043890;28;20021;-65
2021/10/26 10:38:45;;;;;;;16.52;8.13;;;;;;;12.94;98.54;99353.91;5044128;28;20053;-65
2021/10/26 10:41:24;;;;;;;14.75;8.18;;;;;;;13.09;98.10;99357.25;5043772;28;20045;-65
2021/10/26 10:43:50;;;;;;;14.32;7.40;;;;;;;13.12;98.51;99359.78;5044083;28;20216;-65
2021/10/26 10:46:44;;;;;;;16.13;8.50;;;;;;;13.24;98.66;99362.22;5043767;28;20209;-65
2021/10/26 10:49:19;;;;;;;16.13;8.30;;;;;;;13.23;98.40;99360.50;5044005;28;20040;-65
2021/10/26 10:52:11;;;;;;;15.13;8.38;;;;;;;13.15;98.41;99362.38;5049346;28;20021;-65
2021/10/26 10:54:37;;;;;;;14.80;8.02;;;;;;;13.09;98.32;99362.53;5055182;28;20302;-65
2021/10/26 10:57:28;;;;;;;13.00;7.72;;;;;;;13.00;98.09;99356.47;5051978;28;20047;-65
2021/10/26 10:59:55;;;;;;;12.98;6.70;;;;;;;12.99;98.24;99357.41;5068194;28;20021;-65
2021/10/26 11:02:23;;;;;;;18.42;7.60;;;;;;;12.96;98.21;99348.59;5051188;28;20114;-65
2021/10/26 11:04:50;;;;;;;15.10;8.88;;;;;;;12.96;98.44;99352.13;5075751;28;20032;-65
2021/10/26 11:07:15;;;;;;;13.57;7.38;;;;;;;12.99;98.56;99357.41;5054917;28;20021;-65
2021/10/26 11:09:44;;;;;;;15.02;7.45;;;;;;;13.04;98.23;99347.59;5063750;28;20048;-65
2021/10/26 11:12:18;;;;;;;13.98;7.82;;;;;;;13.19;98.10;99348.22;5060336;28;20044;-65
2021/10/26 11:14:45;;;;;;;11.95;7.40;;;;;;;13.28;98.36;99348.03;5065195;28;20079;-65
2021/10/26 11:17:41;;;;;;;13.30;7.28;;;;;;;13.32;98.30;99347.09;5064034;28;20040;-65
2021/10/26 11:20:11;;;;;;;14.82;7.90;;;;;;;13.23;98.48;99349.91;5048002;28;20079;-65
2021/10/26 11:22:45;;;;;;;12.43;6.80;;;;;;;13.37;97.53;99346.09;5059779;28;20021;-65
2021/10/26 11:25:28;;;;;;;11.98;6.55;;;;;;;13.50;96.26;99344.09;5056813;28;20059;-65
2021/10/26 11:27:55;;;;;;;10.57;6.43;;;;;;;13.45;95.65;99341.53;5051402;28;20083;-65
2021/10/26 11:30:27;;;;;;;14.43;6.13;;;;;;;13.56;95.34;99343.97;5056137;28;20017;-65
2021/10/26 11:33:15;;;;;;;13.05;6.60;;;;;;;13.57;94.78;99348.38;5054237;28;20080;-65
2021/10/26 11:35:50;;;;;;;12.18;6.63;;;;;;;13.66;94.37;99353.44;5053632;28;20055;-65